createdAt,value
2022-12-25T00:00:20.686Z,3.83
2022-12-25T00:00:52.758Z,3.99
2022-12-25T00:01:25.578Z,3.97
2022-12-25T00:01:57.250Z,4.00
2022-12-25T00:02:29.823Z,3.94
2022-12-25T00:03:02.946Z,4.13
2022-12-25T00:03:34.803Z,4.06
2022-12-25T00:04:06.393Z,4.01
2022-12-25T00:04:38.160Z,3.98
2022-12-25T00:05:09.715Z,4.01
2022-12-25T00:05:41.480Z,4.03
2022-12-25T00:06:13.455Z,3.96
2022-12-25T00:06:45.725Z,3.97
2022-12-25T00:07:17.350Z,3.99
2022-12-25T00:07:49.018Z,4.03
2022-12-25T00:08:20.521Z,3.99
2022-12-25T00:08:52.124Z,4.02
2022-12-25T00:09:23.617Z,4.06
2022-12-25T00:09:55.194Z,4.07
2022-12-25T00:10:26.707Z,4.13
2022-12-25T00:11:03.149Z,4.14
2022-12-25T00:11:34.860Z,4.11
2022-12-25T00:12:06.414Z,4.15
2022-12-25T00:12:38.035Z,4.23
2022-12-25T00:13:09.629Z,4.29
2022-12-25T00:13:41.962Z,4.39
2022-12-25T00:14:13.776Z,4.41
2022-12-25T00:14:45.344Z,4.44
2022-12-25T00:15:16.949Z,4.49
2022-12-25T00:15:48.752Z,4.45
2022-12-25T00:16:23.269Z,4.49
2022-12-25T00:16:54.944Z,4.43
2022-12-25T00:17:26.549Z,4.46
2022-12-25T00:17:58.093Z,4.41
2022-12-25T00:18:29.593Z,4.47
2022-12-25T00:19:01.295Z,4.45
2022-12-25T00:19:32.958Z,4.49
2022-12-25T00:20:06.129Z,4.51
2022-12-25T00:20:37.639Z,4.58
2022-12-25T00:21:10.852Z,4.62
2022-12-25T00:21:42.362Z,4.53
2022-12-25T00:22:13.905Z,4.49
2022-12-25T00:22:45.420Z,4.58
2022-12-25T00:23:16.955Z,4.69
2022-12-25T00:23:52.954Z,4.63
2022-12-25T00:24:24.566Z,4.61
2022-12-25T00:24:56.285Z,4.62
2022-12-25T00:25:28.208Z,4.64
2022-12-25T00:26:00.078Z,4.62
2022-12-25T00:26:31.820Z,4.63
2022-12-25T00:27:03.395Z,4.63
2022-12-25T00:27:37.792Z,4.65
2022-12-25T00:28:09.391Z,4.71
2022-12-25T00:28:41.112Z,4.72
2022-12-25T00:29:13.879Z,4.72
2022-12-25T00:29:45.430Z,4.75
2022-12-25T00:30:16.951Z,4.82
2022-12-25T00:30:48.475Z,4.78
2022-12-25T00:31:20.333Z,4.90
2022-12-25T00:31:51.902Z,4.88
2022-12-25T00:32:23.464Z,4.92
2022-12-25T00:32:55.017Z,4.96
2022-12-25T00:33:26.526Z,4.99
2022-12-25T00:33:58.104Z,4.96
2022-12-25T00:34:30.131Z,4.95
2022-12-25T00:35:01.918Z,4.91
2022-12-25T00:35:34.209Z,4.86
2022-12-25T00:36:06.422Z,4.74
2022-12-25T00:36:41.919Z,4.73
2022-12-25T00:37:13.903Z,4.65
2022-12-25T00:37:45.427Z,4.56
2022-12-25T00:38:16.996Z,4.59
2022-12-25T00:38:51.371Z,4.52
2022-12-25T00:39:22.904Z,4.46
2022-12-25T00:39:54.553Z,4.41
2022-12-25T00:40:26.079Z,4.40
2022-12-25T00:41:05.784Z,4.35
2022-12-25T00:41:55.828Z,4.35
2022-12-25T00:42:28.512Z,4.31
2022-12-25T00:43:00.098Z,4.31
2022-12-25T00:43:31.734Z,4.25
2022-12-25T00:44:03.228Z,4.25
2022-12-25T00:44:34.955Z,4.26
2022-12-25T00:45:07.190Z,4.31
2022-12-25T00:45:38.878Z,4.30
2022-12-25T00:46:12.375Z,4.29
2022-12-25T00:46:46.142Z,4.42
2022-12-25T00:47:18.261Z,4.39
2022-12-25T00:47:49.815Z,4.37
2022-12-25T00:48:21.315Z,4.38
2022-12-25T00:48:52.928Z,4.34
2022-12-25T00:49:24.609Z,4.36
2022-12-25T00:49:56.172Z,4.42
2022-12-25T00:50:27.732Z,4.44
2022-12-25T00:51:02.788Z,4.42
2022-12-25T00:51:34.392Z,4.45
2022-12-25T00:52:05.974Z,4.45
2022-12-25T00:52:37.518Z,4.46
2022-12-25T00:53:09.032Z,4.61
2022-12-25T00:53:40.537Z,4.63
2022-12-25T00:54:12.108Z,4.61
2022-12-25T00:54:43.772Z,4.63
2022-12-25T00:55:15.304Z,4.68
2022-12-25T00:55:55.517Z,4.76
2022-12-25T00:56:28.189Z,4.95
2022-12-25T00:57:00.219Z,4.88
2022-12-25T00:57:33.067Z,4.95
2022-12-25T00:58:04.616Z,4.96
2022-12-25T00:58:36.358Z,5.00
2022-12-25T00:59:08.357Z,5.06
2022-12-25T00:59:41.144Z,5.10
2022-12-25T01:00:13.310Z,5.08
2022-12-25T01:00:44.842Z,5.05
2022-12-25T01:01:16.540Z,5.10
2022-12-25T01:01:48.300Z,5.12
2022-12-25T01:02:26.142Z,5.21
2022-12-25T01:02:58.086Z,5.27
2022-12-25T01:03:29.890Z,5.33
2022-12-25T01:04:01.563Z,5.25
2022-12-25T01:04:33.137Z,5.19
2022-12-25T01:05:08.329Z,5.18
2022-12-25T01:05:39.837Z,5.19
2022-12-25T01:06:12.882Z,5.22
2022-12-25T01:06:44.614Z,5.31
2022-12-25T01:07:19.547Z,5.30
2022-12-25T01:07:51.181Z,5.33
2022-12-25T01:08:22.995Z,5.36
2022-12-25T01:09:15.545Z,5.37
2022-12-25T01:10:06.071Z,5.38
2022-12-25T01:10:37.621Z,5.35
2022-12-25T01:11:09.202Z,5.36
2022-12-25T01:11:41.024Z,5.42
2022-12-25T01:12:12.580Z,5.46
2022-12-25T01:12:44.141Z,5.48
2022-12-25T01:13:15.697Z,5.46
2022-12-25T01:13:47.206Z,5.47
2022-12-25T01:14:19.391Z,5.52
2022-12-25T01:14:50.886Z,5.43
2022-12-25T01:15:22.397Z,5.42
2022-12-25T01:15:54.563Z,5.38
2022-12-25T01:16:26.486Z,5.46
2022-12-25T01:16:58.199Z,5.44
2022-12-25T01:17:29.857Z,5.52
2022-12-25T01:18:07.297Z,5.46
2022-12-25T01:18:39.670Z,5.52
2022-12-25T01:19:11.536Z,5.51
2022-12-25T01:19:43.083Z,5.61
2022-12-25T01:20:16.279Z,5.56
2022-12-25T01:20:48.213Z,5.53
2022-12-25T01:21:21.299Z,5.55
2022-12-25T01:21:53.559Z,5.66
2022-12-25T01:22:25.140Z,5.60
2022-12-25T01:22:56.665Z,5.54
2022-12-25T01:23:28.173Z,5.53
2022-12-25T01:23:59.834Z,5.51
2022-12-25T01:24:31.405Z,5.49
2022-12-25T01:25:03.399Z,5.50
2022-12-25T01:25:35.066Z,5.48
2022-12-25T01:26:08.686Z,5.48
2022-12-25T01:26:41.586Z,5.49
2022-12-25T01:27:13.377Z,5.54
2022-12-25T01:27:45.263Z,5.54
2022-12-25T01:28:16.879Z,5.62
2022-12-25T01:28:49.259Z,5.58
2022-12-25T01:29:20.819Z,5.52
2022-12-25T01:29:52.351Z,5.55
2022-12-25T01:30:23.871Z,5.52
2022-12-25T01:30:55.422Z,5.49
2022-12-25T01:31:27.132Z,5.57
2022-12-25T01:31:58.752Z,5.69
2022-12-25T01:32:30.321Z,5.66
2022-12-25T01:33:01.845Z,5.64
2022-12-25T01:33:33.358Z,5.64
2022-12-25T01:34:05.107Z,5.69
2022-12-25T01:34:36.798Z,5.67
2022-12-25T01:35:08.737Z,5.77
2022-12-25T01:35:40.633Z,5.72
2022-12-25T01:36:19.974Z,5.68
2022-12-25T01:36:51.582Z,5.69
2022-12-25T01:37:24.904Z,5.68
2022-12-25T01:37:56.480Z,5.72
2022-12-25T01:38:27.958Z,5.67
2022-12-25T01:39:00.144Z,5.67
2022-12-25T01:39:32.137Z,5.67
2022-12-25T01:40:04.838Z,5.69
2022-12-25T01:40:38.539Z,5.77
2022-12-25T01:41:11.833Z,5.75
2022-12-25T01:41:43.378Z,5.74
2022-12-25T01:42:19.899Z,5.74
2022-12-25T01:42:51.527Z,5.73
2022-12-25T01:43:30.310Z,5.76
2022-12-25T01:44:04.490Z,5.78
2022-12-25T01:44:35.971Z,5.76
2022-12-25T01:45:34.127Z,5.87
2022-12-25T01:46:05.778Z,6.00
2022-12-25T01:46:37.398Z,5.91
2022-12-25T01:47:08.864Z,5.95
2022-12-25T01:47:40.483Z,5.96
2022-12-25T01:48:17.233Z,5.86
2022-12-25T01:48:49.106Z,5.86
2022-12-25T01:49:25.671Z,5.83
2022-12-25T01:49:57.449Z,5.83
2022-12-25T01:50:29.184Z,5.83
2022-12-25T01:51:07.132Z,5.91
2022-12-25T01:51:48.864Z,5.88
2022-12-25T01:52:26.765Z,5.87
2022-12-25T01:52:59.556Z,5.82
2022-12-25T01:53:31.308Z,5.83
2022-12-25T01:54:07.051Z,5.83
2022-12-25T01:54:43.325Z,5.88
2022-12-25T01:55:15.086Z,5.92
2022-12-25T01:55:48.595Z,5.91
2022-12-25T01:56:20.206Z,5.89
2022-12-25T01:56:53.826Z,5.88
2022-12-25T01:57:27.634Z,5.99
2022-12-25T01:57:59.175Z,6.02
2022-12-25T01:58:31.158Z,6.09
2022-12-25T01:59:03.191Z,6.01
2022-12-25T01:59:34.841Z,6.02
2022-12-25T02:00:09.066Z,6.11
2022-12-25T02:00:40.834Z,6.11
2022-12-25T02:01:12.571Z,6.10
2022-12-25T02:01:44.361Z,6.07
2022-12-25T02:02:16.141Z,6.12
2022-12-25T02:02:48.529Z,6.10
2022-12-25T02:03:21.303Z,6.14
2022-12-25T02:03:57.025Z,6.10
2022-12-25T02:04:40.606Z,6.06
2022-12-25T02:05:18.597Z,6.06
2022-12-25T02:05:51.051Z,6.03
2022-12-25T02:06:23.566Z,6.03
2022-12-25T02:06:55.935Z,6.03
2022-12-25T02:07:29.966Z,6.16
2022-12-25T02:08:06.732Z,6.09
2022-12-25T02:08:38.588Z,6.15
2022-12-25T02:09:10.182Z,6.09
2022-12-25T02:09:42.230Z,6.09
2022-12-25T02:10:14.268Z,6.08
2022-12-25T02:10:46.005Z,6.12
2022-12-25T02:11:37.493Z,6.12
2022-12-25T02:12:09.982Z,6.16
2022-12-25T02:12:43.941Z,6.15
2022-12-25T02:13:18.107Z,6.27
2022-12-25T02:13:49.653Z,6.22
2022-12-25T02:14:21.236Z,6.28
2022-12-25T02:15:01.144Z,6.23
2022-12-25T02:15:47.719Z,6.35
2022-12-25T02:16:22.229Z,6.33
2022-12-25T02:17:21.285Z,6.36
2022-12-25T02:18:31.778Z,6.35
2022-12-25T02:19:11.342Z,6.42
2022-12-25T02:20:09.937Z,6.35
2022-12-25T02:21:02.816Z,6.50
2022-12-25T02:22:12.935Z,6.49
2022-12-25T02:23:15.463Z,6.46
2022-12-25T02:23:54.381Z,6.57
2022-12-25T02:24:29.046Z,6.59
2022-12-25T02:25:18.564Z,6.49
2022-12-25T02:26:17.423Z,6.48
2022-12-25T02:27:06.731Z,6.45
2022-12-25T02:28:01.537Z,6.47
2022-12-25T02:29:10.135Z,6.39
2022-12-25T02:30:02.281Z,6.47
2022-12-25T02:30:39.903Z,6.46
2022-12-25T02:31:23.960Z,6.41
2022-12-25T02:31:59.661Z,6.45
2022-12-25T02:32:35.311Z,6.45
2022-12-25T02:33:34.195Z,6.46
2022-12-25T02:34:19.294Z,6.61
2022-12-25T02:35:07.801Z,6.53
2022-12-25T02:35:39.957Z,6.54
2022-12-25T02:36:16.715Z,6.56
2022-12-25T02:37:07.874Z,6.63
2022-12-25T02:37:51.802Z,6.60
2022-12-25T02:38:30.602Z,6.60
2022-12-25T02:39:23.730Z,6.59
2022-12-25T02:40:02.819Z,6.62
2022-12-25T02:40:41.514Z,6.61
2022-12-25T02:41:15.712Z,6.63
2022-12-25T02:41:53.244Z,6.64
2022-12-25T02:43:01.729Z,6.58
2022-12-25T02:43:55.389Z,6.63
2022-12-25T02:44:46.457Z,6.67
2022-12-25T02:45:40.435Z,6.67
2022-12-25T02:46:33.159Z,6.62
2022-12-25T02:47:45.239Z,6.66
2022-12-25T02:48:37.585Z,6.72
2022-12-25T02:49:31.775Z,6.71
2022-12-25T02:50:23.198Z,6.69
2022-12-25T02:51:14.418Z,6.85
2022-12-25T02:52:10.981Z,6.86
2022-12-25T02:53:04.187Z,6.84
2022-12-25T02:53:54.566Z,6.82
2022-12-25T02:54:51.292Z,6.89
2022-12-25T02:55:45.877Z,6.78
2022-12-25T02:56:36.870Z,6.72
2022-12-25T02:57:30.358Z,6.71
2022-12-25T02:58:28.885Z,6.78
2022-12-25T02:59:19.335Z,6.73
2022-12-25T03:00:10.929Z,6.71
2022-12-25T03:01:07.695Z,6.72
2022-12-25T03:01:58.072Z,6.69
2022-12-25T03:02:49.408Z,6.64
2022-12-25T03:03:41.157Z,6.62
2022-12-25T03:04:35.234Z,6.60
2022-12-25T03:05:26.807Z,6.66
2022-12-25T03:06:21.107Z,6.62
2022-12-25T03:07:03.206Z,6.58
2022-12-25T03:07:38.478Z,6.73
2022-12-25T03:08:16.545Z,6.71
2022-12-25T03:08:53.212Z,6.77
2022-12-25T03:09:46.636Z,6.70
2022-12-25T03:10:37.605Z,6.64
2022-12-25T03:11:29.355Z,6.61
2022-12-25T03:12:15.791Z,6.65
2022-12-25T03:13:12.983Z,6.74
2022-12-25T03:13:46.830Z,6.68
2022-12-25T03:14:37.158Z,6.73
2022-12-25T03:15:29.293Z,6.80
2022-12-25T03:16:20.895Z,6.76
2022-12-25T03:16:55.630Z,6.70
2022-12-25T03:17:27.361Z,6.78
2022-12-25T03:18:01.705Z,6.72
2022-12-25T03:18:33.826Z,6.69
2022-12-25T03:19:25.447Z,6.67
2022-12-25T03:20:15.536Z,6.65
2022-12-25T03:21:05.500Z,6.62
2022-12-25T03:21:55.497Z,6.65
2022-12-25T03:22:48.077Z,6.68
2022-12-25T03:23:41.037Z,6.76
2022-12-25T03:24:31.117Z,6.73
2022-12-25T03:25:21.750Z,6.73
2022-12-25T03:26:12.641Z,6.85
2022-12-25T03:26:56.899Z,6.75
2022-12-25T03:27:32.244Z,6.75
2022-12-25T03:28:06.107Z,6.76
2022-12-25T03:28:37.730Z,6.89
2022-12-25T03:29:09.290Z,6.86
2022-12-25T03:29:59.723Z,6.83
2022-12-25T03:31:14.317Z,6.83
2022-12-25T03:31:54.064Z,6.87
2022-12-25T03:33:18.009Z,6.87
2022-12-25T03:34:51.084Z,6.97
2022-12-25T03:35:45.569Z,6.91
2022-12-25T03:36:28.704Z,6.97
2022-12-25T03:37:30.702Z,6.90
2022-12-25T03:38:36.686Z,6.96
2022-12-25T03:39:35.061Z,6.88
2022-12-25T03:40:29.788Z,6.82
2022-12-25T03:41:38.489Z,6.91
2022-12-25T03:42:30.357Z,6.80
2022-12-25T03:43:46.239Z,6.81
2022-12-25T03:44:43.618Z,6.80
2022-12-25T03:45:44.384Z,6.83
2022-12-25T03:46:36.157Z,6.80
2022-12-25T03:47:37.525Z,6.85
2022-12-25T03:48:28.451Z,6.88
2022-12-25T03:49:27.173Z,6.91
2022-12-25T03:50:22.056Z,6.94
2022-12-25T03:51:31.822Z,6.96
2022-12-25T03:52:23.495Z,6.93
2022-12-25T03:53:15.156Z,6.96
2022-12-25T03:54:08.237Z,6.99
2022-12-25T03:55:00.460Z,6.96
2022-12-25T03:55:51.070Z,7.00
2022-12-25T03:56:41.714Z,6.95
2022-12-25T03:57:32.181Z,6.97
2022-12-25T03:58:22.225Z,6.97
2022-12-25T03:59:22.945Z,6.97
2022-12-25T04:00:13.854Z,6.96
2022-12-25T04:01:03.953Z,6.96
2022-12-25T04:01:54.006Z,6.96
2022-12-25T04:02:44.574Z,7.00
2022-12-25T04:03:35.162Z,6.95
2022-12-25T04:04:25.207Z,6.89
2022-12-25T04:05:15.289Z,7.06
2022-12-25T04:06:05.233Z,7.10
2022-12-25T04:06:55.880Z,7.11
2022-12-25T04:07:46.345Z,7.05
2022-12-25T04:08:36.398Z,7.06
2022-12-25T04:09:26.557Z,7.07
2022-12-25T04:10:16.593Z,7.04
2022-12-25T04:11:06.754Z,7.01
2022-12-25T04:12:02.261Z,7.04
2022-12-25T04:13:09.764Z,7.12
2022-12-25T04:13:59.605Z,7.06
2022-12-25T04:14:49.838Z,7.05
2022-12-25T04:15:39.967Z,7.07
2022-12-25T04:16:30.074Z,7.07
2022-12-25T04:17:21.063Z,7.12
2022-12-25T04:18:11.747Z,7.08
2022-12-25T04:19:01.863Z,7.11
2022-12-25T04:19:51.949Z,7.10
2022-12-25T04:21:01.834Z,7.03
2022-12-25T04:21:51.887Z,7.20
2022-12-25T04:22:42.074Z,7.03
2022-12-25T04:23:32.149Z,7.04
2022-12-25T04:24:22.750Z,6.90
2022-12-25T04:25:12.812Z,6.99
2022-12-25T04:26:02.931Z,7.08
2022-12-25T04:26:53.502Z,6.98
2022-12-25T04:27:50.850Z,6.92
2022-12-25T04:28:40.722Z,6.92
2022-12-25T04:29:30.539Z,6.97
2022-12-25T04:30:21.049Z,7.10
2022-12-25T04:31:11.277Z,6.99
2022-12-25T04:32:01.250Z,6.96
2022-12-25T04:32:51.457Z,7.01
2022-12-25T04:33:43.670Z,7.02
2022-12-25T04:34:34.250Z,6.97
2022-12-25T04:35:24.679Z,7.04
2022-12-25T04:36:14.228Z,6.95
2022-12-25T04:36:45.893Z,6.91
2022-12-25T04:37:17.539Z,6.94
2022-12-25T04:37:49.070Z,6.92
2022-12-25T04:38:21.205Z,6.95
2022-12-25T04:38:52.713Z,7.01
2022-12-25T04:39:24.249Z,6.99
2022-12-25T04:39:55.785Z,6.97
2022-12-25T04:40:27.351Z,6.92
2022-12-25T04:40:59.967Z,7.02
2022-12-25T04:41:31.491Z,7.00
2022-12-25T04:42:03.293Z,6.99
2022-12-25T04:42:35.241Z,7.01
2022-12-25T04:43:06.811Z,7.09
2022-12-25T04:43:38.486Z,7.05
2022-12-25T04:44:10.093Z,7.07
2022-12-25T04:44:41.680Z,7.17
2022-12-25T04:45:13.165Z,7.11
2022-12-25T04:45:52.546Z,7.05
2022-12-25T04:46:24.101Z,7.12
2022-12-25T04:46:55.945Z,7.11
2022-12-25T04:47:27.641Z,7.13
2022-12-25T04:48:03.023Z,7.06
2022-12-25T04:48:35.871Z,7.07
2022-12-25T04:49:07.420Z,7.04
2022-12-25T04:49:39.296Z,7.03
2022-12-25T04:50:11.526Z,6.99
2022-12-25T04:50:43.025Z,6.99
2022-12-25T04:51:17.240Z,7.01
2022-12-25T04:51:48.808Z,7.00
2022-12-25T04:52:20.334Z,7.02
2022-12-25T04:52:51.914Z,7.09
2022-12-25T04:53:24.443Z,7.20
2022-12-25T04:53:56.162Z,7.12
2022-12-25T04:54:27.678Z,7.06
2022-12-25T04:54:59.173Z,7.03
2022-12-25T04:55:49.309Z,7.05
2022-12-25T04:56:21.316Z,7.03
2022-12-25T04:56:52.895Z,7.05
2022-12-25T04:57:24.407Z,7.01
2022-12-25T04:57:55.956Z,6.98
2022-12-25T04:58:27.498Z,6.98
2022-12-25T04:58:59.057Z,6.97
2022-12-25T04:59:30.610Z,6.99
2022-12-25T05:00:02.170Z,6.96
2022-12-25T05:00:33.903Z,6.99
2022-12-25T05:01:06.832Z,7.04
2022-12-25T05:01:38.531Z,7.11
2022-12-25T05:02:10.402Z,7.05
2022-12-25T05:02:42.590Z,7.06
2022-12-25T05:03:14.355Z,6.98
2022-12-25T05:03:46.066Z,7.12
2022-12-25T05:04:17.636Z,7.03
2022-12-25T05:04:49.115Z,7.04
2022-12-25T05:05:20.641Z,7.11
2022-12-25T05:05:52.678Z,7.02
2022-12-25T05:06:24.338Z,6.96
2022-12-25T05:06:55.923Z,6.99
2022-12-25T05:07:27.667Z,6.98
2022-12-25T05:07:59.321Z,6.99
2022-12-25T05:08:32.028Z,7.00
2022-12-25T05:09:03.548Z,7.05
2022-12-25T05:09:35.747Z,7.01
2022-12-25T05:10:07.780Z,7.01
2022-12-25T05:10:40.524Z,7.02
2022-12-25T05:11:14.252Z,7.06
2022-12-25T05:11:45.742Z,7.03
2022-12-25T05:12:17.215Z,6.98
2022-12-25T05:12:48.737Z,6.96
2022-12-25T05:13:20.264Z,6.90
2022-12-25T05:13:51.744Z,6.94
2022-12-25T05:14:23.385Z,6.94
2022-12-25T05:14:55.266Z,6.98
2022-12-25T05:15:26.777Z,6.97
2022-12-25T05:15:58.376Z,6.96
2022-12-25T05:16:30.113Z,6.95
2022-12-25T05:17:01.808Z,6.97
2022-12-25T05:17:33.369Z,6.98
2022-12-25T05:18:04.974Z,6.94
2022-12-25T05:18:36.462Z,7.04
2022-12-25T05:19:07.982Z,6.98
2022-12-25T05:19:39.505Z,7.12
2022-12-25T05:20:11.273Z,7.13
2022-12-25T05:20:42.827Z,7.04
2022-12-25T05:21:14.448Z,7.04
2022-12-25T05:21:45.966Z,7.00
2022-12-25T05:22:17.516Z,7.05
2022-12-25T05:22:48.986Z,7.04
2022-12-25T05:23:21.274Z,7.06
2022-12-25T05:23:53.364Z,7.06
2022-12-25T05:24:28.673Z,7.08
2022-12-25T05:25:00.207Z,7.05
2022-12-25T05:25:31.957Z,7.00
2022-12-25T05:26:05.542Z,6.98
2022-12-25T05:26:37.049Z,6.97
2022-12-25T05:27:08.584Z,6.98
2022-12-25T05:27:40.133Z,7.00
2022-12-25T05:28:11.627Z,6.96
2022-12-25T05:28:43.438Z,6.92
2022-12-25T05:29:14.983Z,6.87
2022-12-25T05:29:46.484Z,6.90
2022-12-25T05:30:18.137Z,6.93
2022-12-25T05:30:49.724Z,6.89
2022-12-25T05:31:21.418Z,6.92
2022-12-25T05:31:53.107Z,6.89
2022-12-25T05:32:24.615Z,6.84
2022-12-25T05:32:56.137Z,6.83
2022-12-25T05:33:27.824Z,6.86
2022-12-25T05:33:59.414Z,6.83
2022-12-25T05:34:30.985Z,6.80
2022-12-25T05:35:02.556Z,6.82
2022-12-25T05:35:37.366Z,6.87
2022-12-25T05:36:10.261Z,6.83
2022-12-25T05:36:41.786Z,6.78
2022-12-25T05:37:13.641Z,6.90
2022-12-25T05:37:45.261Z,6.83
2022-12-25T05:38:16.798Z,6.77
2022-12-25T05:38:48.328Z,6.81
2022-12-25T05:39:19.851Z,6.72
2022-12-25T05:39:51.362Z,6.69
2022-12-25T05:40:22.928Z,6.73
2022-12-25T05:40:54.474Z,6.82
2022-12-25T05:41:30.639Z,6.70
2022-12-25T05:42:05.885Z,6.72
2022-12-25T05:42:37.439Z,6.71
2022-12-25T05:43:09.280Z,6.78
2022-12-25T05:43:44.765Z,6.67
2022-12-25T05:44:19.309Z,6.63
2022-12-25T05:44:50.882Z,6.53
2022-12-25T05:45:22.407Z,6.53
2022-12-25T05:45:54.222Z,6.62
2022-12-25T05:46:25.788Z,6.55
2022-12-25T05:46:57.425Z,6.66
2022-12-25T05:47:29.005Z,6.70
2022-12-25T05:48:00.599Z,6.72
2022-12-25T05:48:33.314Z,6.68
2022-12-25T05:49:05.734Z,6.64
2022-12-25T05:49:37.303Z,6.57
2022-12-25T05:50:09.253Z,6.50
2022-12-25T05:50:40.897Z,6.46
2022-12-25T05:51:14.585Z,6.57
2022-12-25T05:51:46.080Z,6.50
2022-12-25T05:52:17.606Z,6.63
2022-12-25T05:52:49.119Z,6.59
2022-12-25T05:53:20.669Z,6.58
2022-12-25T05:53:52.232Z,6.51
2022-12-25T05:54:24.064Z,6.56
2022-12-25T05:54:55.581Z,6.68
2022-12-25T05:55:27.102Z,6.63
2022-12-25T05:56:03.163Z,6.61
2022-12-25T05:56:34.685Z,6.62
2022-12-25T05:57:06.460Z,6.59
2022-12-25T05:57:37.981Z,6.60
2022-12-25T05:58:10.525Z,6.58
2022-12-25T05:58:42.170Z,6.60
2022-12-25T05:59:13.659Z,6.46
2022-12-25T05:59:45.225Z,6.51
2022-12-25T06:00:17.065Z,6.49
2022-12-25T06:00:48.589Z,6.49
2022-12-25T06:01:23.117Z,6.50
2022-12-25T06:01:54.744Z,6.51
2022-12-25T06:02:26.633Z,6.55
2022-12-25T06:02:58.633Z,6.45
2022-12-25T06:03:30.298Z,6.43
2022-12-25T06:04:04.664Z,6.51
2022-12-25T06:04:40.115Z,6.42
2022-12-25T06:05:11.818Z,6.48
2022-12-25T06:05:43.276Z,6.49
2022-12-25T06:06:15.211Z,6.48
2022-12-25T06:06:46.853Z,6.43
2022-12-25T06:07:18.352Z,6.40
2022-12-25T06:07:50.146Z,6.50
2022-12-25T06:08:21.695Z,6.41
2022-12-25T06:08:55.090Z,6.51
2022-12-25T06:09:26.781Z,6.48
2022-12-25T06:09:58.283Z,6.40
2022-12-25T06:10:29.806Z,6.41
2022-12-25T06:11:05.989Z,6.44
2022-12-25T06:11:37.684Z,6.40
2022-12-25T06:12:09.457Z,6.38
2022-12-25T06:12:41.012Z,6.41
2022-12-25T06:13:12.598Z,6.33
2022-12-25T06:13:44.204Z,6.35
2022-12-25T06:14:16.297Z,6.25
2022-12-25T06:14:47.821Z,6.24
2022-12-25T06:15:19.335Z,6.26
2022-12-25T06:15:51.163Z,6.35
2022-12-25T06:16:22.769Z,6.35
2022-12-25T06:16:54.380Z,6.44
2022-12-25T06:17:26.810Z,6.34
2022-12-25T06:18:00.581Z,6.29
2022-12-25T06:18:35.559Z,6.30
2022-12-25T06:19:07.229Z,6.30
2022-12-25T06:19:38.904Z,6.35
2022-12-25T06:20:10.873Z,6.36
2022-12-25T06:20:42.406Z,6.32
2022-12-25T06:21:15.128Z,6.27
2022-12-25T06:21:46.696Z,6.22
2022-12-25T06:22:19.237Z,6.24
2022-12-25T06:22:50.818Z,6.27
2022-12-25T06:23:22.553Z,6.18
2022-12-25T06:23:54.408Z,6.12
2022-12-25T06:24:25.972Z,6.21
2022-12-25T06:24:57.713Z,6.22
2022-12-25T06:25:29.272Z,6.16
2022-12-25T06:26:06.474Z,6.15
2022-12-25T06:26:38.016Z,6.24
2022-12-25T06:27:12.296Z,6.25
2022-12-25T06:27:43.863Z,6.25
2022-12-25T06:28:15.369Z,6.32
2022-12-25T06:28:47.515Z,6.22
2022-12-25T06:29:19.102Z,6.25
2022-12-25T06:29:50.665Z,6.31
2022-12-25T06:30:22.215Z,6.32
2022-12-25T06:30:53.711Z,6.34
2022-12-25T06:31:25.658Z,6.33
2022-12-25T06:31:57.443Z,6.42
2022-12-25T06:32:29.114Z,6.39
2022-12-25T06:33:00.688Z,6.42
2022-12-25T06:33:32.223Z,6.34
2022-12-25T06:34:03.838Z,6.34
2022-12-25T06:34:35.418Z,6.34
2022-12-25T06:35:07.336Z,6.41
2022-12-25T06:35:41.273Z,6.36
2022-12-25T06:36:18.537Z,6.33
2022-12-25T06:36:50.746Z,6.40
2022-12-25T06:37:22.256Z,6.45
2022-12-25T06:37:53.857Z,6.40
2022-12-25T06:38:25.655Z,6.42
2022-12-25T06:39:00.346Z,6.51
2022-12-25T06:39:32.079Z,6.51
2022-12-25T06:40:03.919Z,6.57
2022-12-25T06:40:35.540Z,6.48
2022-12-25T06:41:22.180Z,6.44
2022-12-25T06:41:53.683Z,6.45
2022-12-25T06:42:25.188Z,6.45
2022-12-25T06:42:59.839Z,6.45
2022-12-25T06:43:31.383Z,6.45
2022-12-25T06:44:03.001Z,6.46
2022-12-25T06:44:34.520Z,6.58
2022-12-25T06:45:06.569Z,6.55
2022-12-25T06:45:38.299Z,6.57
2022-12-25T06:46:12.290Z,6.61
2022-12-25T06:46:43.912Z,6.55
2022-12-25T06:47:15.440Z,6.62
2022-12-25T06:47:46.942Z,6.62
2022-12-25T06:48:18.466Z,6.73
2022-12-25T06:48:50.209Z,6.68
2022-12-25T06:49:21.789Z,6.73
2022-12-25T06:49:53.335Z,6.76
2022-12-25T06:50:24.891Z,6.72
2022-12-25T06:50:59.849Z,6.72
2022-12-25T06:51:32.674Z,6.72
2022-12-25T06:52:04.261Z,6.70
2022-12-25T06:52:36.213Z,6.71
2022-12-25T06:53:07.694Z,6.65
2022-12-25T06:53:40.193Z,6.80
2022-12-25T06:54:12.389Z,6.77
2022-12-25T06:54:43.874Z,6.88
2022-12-25T06:55:16.102Z,6.82
2022-12-25T06:55:50.689Z,6.82
2022-12-25T06:56:24.491Z,6.79
2022-12-25T06:56:55.995Z,6.81
2022-12-25T06:57:27.501Z,6.79
2022-12-25T06:57:59.165Z,6.77
2022-12-25T06:58:30.718Z,6.83
2022-12-25T06:59:05.167Z,6.75
2022-12-25T06:59:36.689Z,6.76
2022-12-25T07:00:09.034Z,6.86
2022-12-25T07:00:41.374Z,6.84
2022-12-25T07:01:24.682Z,6.78
2022-12-25T07:01:57.681Z,6.83
2022-12-25T07:02:29.555Z,6.78
2022-12-25T07:03:01.241Z,6.79
2022-12-25T07:03:35.343Z,6.82
2022-12-25T07:04:12.737Z,6.88
2022-12-25T07:04:44.741Z,6.90
2022-12-25T07:05:16.434Z,6.90
2022-12-25T07:05:48.092Z,6.87
2022-12-25T07:06:19.937Z,6.86
2022-12-25T07:06:51.524Z,6.90
2022-12-25T07:07:23.690Z,6.95
2022-12-25T07:07:55.233Z,6.90
2022-12-25T07:08:26.762Z,6.88
2022-12-25T07:08:58.357Z,6.90
2022-12-25T07:09:29.956Z,6.87
2022-12-25T07:10:01.490Z,6.92
2022-12-25T07:10:33.036Z,6.87
2022-12-25T07:11:04.745Z,6.91
2022-12-25T07:11:36.595Z,6.89
2022-12-25T07:12:23.567Z,6.87
2022-12-25T07:12:55.338Z,6.84
2022-12-25T07:13:26.830Z,6.86
2022-12-25T07:13:58.366Z,6.87
2022-12-25T07:14:29.834Z,6.82
2022-12-25T07:15:01.342Z,6.79
2022-12-25T07:15:33.318Z,6.83
2022-12-25T07:16:05.724Z,6.84
2022-12-25T07:16:37.577Z,6.92
2022-12-25T07:17:09.209Z,6.89
2022-12-25T07:17:40.709Z,6.89
2022-12-25T07:18:12.288Z,6.91
2022-12-25T07:18:43.817Z,6.89
2022-12-25T07:19:17.102Z,6.91
2022-12-25T07:19:48.832Z,6.92
2022-12-25T07:20:20.481Z,6.96
2022-12-25T07:20:52.076Z,6.93
2022-12-25T07:21:23.587Z,6.91
2022-12-25T07:21:55.139Z,6.91
2022-12-25T07:22:29.031Z,6.98
2022-12-25T07:23:00.742Z,6.97
2022-12-25T07:23:32.284Z,6.95
2022-12-25T07:24:05.150Z,6.97
2022-12-25T07:24:36.786Z,7.05
2022-12-25T07:25:08.361Z,6.97
2022-12-25T07:25:39.894Z,6.98
2022-12-25T07:26:12.222Z,7.01
2022-12-25T07:26:43.814Z,6.99
2022-12-25T07:27:15.302Z,7.01
2022-12-25T07:27:47.101Z,7.05
2022-12-25T07:28:21.930Z,7.07
2022-12-25T07:28:55.359Z,7.03
2022-12-25T07:29:26.948Z,7.04
2022-12-25T07:29:58.459Z,7.08
2022-12-25T07:30:30.261Z,7.05
2022-12-25T07:31:07.383Z,7.09
2022-12-25T07:31:41.066Z,7.09
2022-12-25T07:32:12.784Z,7.04
2022-12-25T07:32:49.880Z,7.07
2022-12-25T07:33:21.761Z,7.08
2022-12-25T07:33:55.545Z,7.16
2022-12-25T07:34:27.132Z,7.11
2022-12-25T07:34:58.957Z,7.07
2022-12-25T07:35:30.629Z,7.05
2022-12-25T07:36:02.587Z,7.15
2022-12-25T07:36:34.122Z,7.06
2022-12-25T07:37:05.635Z,7.05
2022-12-25T07:37:38.584Z,7.07
2022-12-25T07:38:10.477Z,7.06
2022-12-25T07:38:42.630Z,7.03
2022-12-25T07:39:14.269Z,7.09
2022-12-25T07:39:45.841Z,7.13
2022-12-25T07:40:17.550Z,7.20
2022-12-25T07:40:49.183Z,7.25
2022-12-25T07:41:20.966Z,7.20
2022-12-25T07:41:54.796Z,7.16
2022-12-25T07:42:26.269Z,7.19
2022-12-25T07:42:59.205Z,7.19
2022-12-25T07:43:30.750Z,7.26
2022-12-25T07:44:02.299Z,7.20
2022-12-25T07:44:33.819Z,7.19
2022-12-25T07:45:06.158Z,7.25
2022-12-25T07:45:38.229Z,7.15
2022-12-25T07:46:10.581Z,7.13
2022-12-25T07:46:42.776Z,7.15
2022-12-25T07:47:14.912Z,7.18
2022-12-25T07:47:46.607Z,7.20
2022-12-25T07:48:18.131Z,7.25
2022-12-25T07:48:49.851Z,7.20
2022-12-25T07:49:23.564Z,7.28
2022-12-25T07:49:55.061Z,7.22
2022-12-25T07:50:28.702Z,7.25
2022-12-25T07:51:02.986Z,7.30
2022-12-25T07:51:35.122Z,7.29
2022-12-25T07:52:06.613Z,7.37
2022-12-25T07:52:43.424Z,7.31
2022-12-25T07:53:15.383Z,7.35
2022-12-25T07:53:47.156Z,7.31
2022-12-25T07:54:18.676Z,7.24
2022-12-25T07:54:50.201Z,7.26
2022-12-25T07:55:21.927Z,7.21
2022-12-25T07:55:58.707Z,7.16
2022-12-25T07:56:30.227Z,7.20
2022-12-25T07:57:04.487Z,7.18
2022-12-25T07:57:36.458Z,7.18
2022-12-25T07:58:07.979Z,7.25
2022-12-25T07:58:40.350Z,7.30
2022-12-25T07:59:12.052Z,7.33
2022-12-25T07:59:43.554Z,7.31
2022-12-25T08:00:15.873Z,7.23
2022-12-25T08:00:47.493Z,7.22
2022-12-25T08:01:25.397Z,7.24
2022-12-25T08:01:57.369Z,7.27
2022-12-25T08:02:29.412Z,7.24
2022-12-25T08:03:01.414Z,7.29
2022-12-25T08:03:34.322Z,7.27
2022-12-25T08:04:06.292Z,7.30
2022-12-25T08:04:37.885Z,7.27